Time;durP1;ratioP1;P1;durP2;ratioP2;P2;SDS_P1;SDS_P2;PMS_P1;PMS_P2;Temp;Humidity;BMP_temperature;BMP_pressure;BME280_temperature;BME280_humidity;BME280_pressure;Samples;Min_cycle;Max_cycle;Signal;HPM_P1;HPM_P2
2022/08/15 00:02:17;;;;;;;7.40;3.33;;;22.90;83.30;;;;;;4391856;32;19994;-68
2022/08/15 00:04:44;;;;;;;6.85;3.42;;;22.80;83.80;;;;;;4395196;32;20109;-69
2022/08/15 00:07:12;;;;;;;5.82;3.40;;;22.80;83.50;;;;;;4388437;32;20005;-69
2022/08/15 00:09:39;;;;;;;6.25;3.30;;;22.80;83.90;;;;;;4397947;32;19959;-69
2022/08/15 00:12:07;;;;;;;6.20;3.40;;;22.80;84.20;;;;;;4397978;32;20042;-70
2022/08/15 00:14:36;;;;;;;6.80;3.40;;;22.70;84.30;;;;;;4391855;32;19975;-68
2022/08/15 00:17:09;;;;;;;5.30;3.10;;;22.70;84.10;;;;;;4389536;32;19993;-69
2022/08/15 00:19:38;;;;;;;6.15;2.87;;;22.70;84.40;;;;;;4393964;32;19996;-68
2022/08/15 00:22:09;;;;;;;5.75;3.00;;;22.70;84.70;;;;;;4383870;32;19974;-69
2022/08/15 00:24:38;;;;;;;6.35;3.40;;;22.70;84.90;;;;;;4390548;32;19977;-69
2022/08/15 00:27:08;;;;;;;5.70;2.90;;;22.60;84.90;;;;;;4395122;32;20003;-69
2022/08/15 00:29:36;;;;;;;7.97;3.62;;;22.60;85.30;;;;;;4397944;32;19997;-69
2022/08/15 00:32:04;;;;;;;5.05;3.22;;;22.60;85.60;;;;;;4395167;32;19977;-69
2022/08/15 00:34:31;;;;;;;5.22;3.33;;;22.60;85.40;;;;;;4391606;32;20138;-69
2022/08/15 00:36:58;;;;;;;5.65;3.30;;;22.60;85.30;;;;;;4399562;32;19987;-69
2022/08/15 00:39:27;;;;;;;6.40;3.65;;;22.50;85.50;;;;;;4389960;32;19994;-69
2022/08/15 00:41:58;;;;;;;5.30;3.20;;;22.60;85.10;;;;;;4392145;32;19968;-68
2022/08/15 00:44:30;;;;;;;6.07;3.37;;;22.50;85.60;;;;;;4398546;32;19970;-68
2022/08/15 00:46:58;;;;;;;;;;;22.40;86.20;;;;;;4382351;32;19978;-69
2022/08/15 00:49:28;;;;;;;13.88;4.15;;;22.20;92.00;;;;;;4389645;32;19899;-70
2022/08/15 00:51:59;;;;;;;6.05;4.35;;;21.10;98.00;;;;;;4396562;32;19951;-68
2022/08/15 00:54:38;;;;;;;9.13;5.15;;;20.20;99.90;;;;;;4402292;32;20009;-69
2022/08/15 00:57:11;;;;;;;6.80;4.20;;;20.00;99.90;;;;;;4395814;32;20021;-69
2022/08/15 00:59:45;;;;;;;9.45;4.57;;;19.90;99.90;;;;;;4390782;32;19996;-69
2022/08/15 01:02:15;;;;;;;8.57;5.72;;;19.70;99.90;;;;;;4389505;32;20117;-70
2022/08/15 01:04:42;;;;;;;8.60;6.07;;;19.60;99.90;;;;;;4393518;32;19972;-70
2022/08/15 01:07:10;;;;;;;9.25;5.90;;;19.60;99.90;;;;;;4389356;32;20083;-70
2022/08/15 01:09:37;;;;;;;8.82;5.72;;;19.70;99.90;;;;;;4397974;32;20071;-69
2022/08/15 01:12:10;;;;;;;9.20;6.40;;;19.70;99.90;;;;;;4394593;32;19990;-69
2022/08/15 01:14:39;;;;;;;7.97;5.35;;;19.70;99.90;;;;;;4396841;32;19958;-69
2022/08/15 01:17:07;;;;;;;12.27;7.45;;;19.60;99.90;;;;;;4407182;32;19959;-69
2022/08/15 01:19:37;;;;;;;8.23;5.25;;;19.50;99.90;;;;;;4406035;32;19997;-69
2022/08/15 01:22:16;;;;;;;7.12;4.30;;;19.50;99.90;;;;;;4398544;32;19971;-68
2022/08/15 01:24:54;;;;;;;11.57;8.43;;;19.30;99.90;;;;;;4395564;32;20076;-69
2022/08/15 01:27:24;;;;;;;9.43;5.95;;;19.40;99.90;;;;;;4403963;32;20013;-69
2022/08/15 01:29:53;;;;;;;10.35;6.25;;;19.40;99.90;;;;;;4392410;32;20042;-69
2022/08/15 01:32:19;;;;;;;9.35;5.40;;;19.50;99.90;;;;;;4395476;32;19988;-69
2022/08/15 01:34:46;;;;;;;8.20;5.93;;;19.40;99.90;;;;;;4396916;32;20162;-69
2022/08/15 01:37:14;;;;;;;9.13;5.32;;;19.40;99.90;;;;;;4397501;32;19992;-70
2022/08/15 01:39:46;;;;;;;9.27;6.97;;;19.50;99.90;;;;;;4383184;32;20008;-69
2022/08/15 01:42:20;;;;;;;10.15;5.87;;;19.50;99.90;;;;;;4389660;32;19961;-69
2022/08/15 01:44:53;;;;;;;10.73;6.12;;;19.30;99.90;;;;;;4404006;32;20004;-69
2022/08/15 01:47:24;;;;;;;8.95;5.90;;;19.20;99.90;;;;;;4402802;32;19993;-69
2022/08/15 01:49:55;;;;;;;8.27;5.57;;;19.10;99.90;;;;;;4405943;32;20117;-69
2022/08/15 01:52:27;;;;;;;9.13;6.30;;;19.10;99.90;;;;;;4393658;32;19995;-69
2022/08/15 01:54:57;;;;;;;8.80;5.43;;;19.10;99.90;;;;;;4396072;32;19961;-69
2022/08/15 01:57:25;;;;;;;10.95;6.12;;;19.10;99.90;;;;;;4406239;32;19991;-69
2022/08/15 01:59:57;;;;;;;9.13;6.25;;;19.00;99.90;;;;;;4398112;32;20031;-70
2022/08/15 02:02:25;;;;;;;8.63;5.05;;;19.10;99.90;;;;;;4391293;32;20066;-69
2022/08/15 02:04:52;;;;;;;7.85;4.53;;;19.10;99.90;;;;;;4391229;32;19974;-69
2022/08/15 02:07:24;;;;;;;6.32;4.20;;;19.10;99.90;;;;;;4391370;32;19961;-70
2022/08/15 02:09:51;;;;;;;7.28;4.95;;;19.10;99.90;;;;;;4392258;32;20026;-69
2022/08/15 02:12:22;;;;;;;6.00;3.95;;;19.10;99.90;;;;;;4399074;32;20024;-69
2022/08/15 02:14:50;;;;;;;6.62;4.68;;;19.20;99.90;;;;;;4391000;32;19966;-69
2022/08/15 02:17:17;;;;;;;7.10;4.40;;;19.20;99.90;;;;;;4403167;32;20003;-70
2022/08/15 02:19:48;;;;;;;6.40;4.15;;;19.20;99.90;;;;;;4398234;32;19972;-69
2022/08/15 02:22:16;;;;;;;5.37;3.85;;;19.10;99.90;;;;;;4401004;32;19966;-70
2022/08/15 02:24:43;;;;;;;7.90;3.83;;;19.10;99.90;;;;;;4396058;32;20006;-69
2022/08/15 02:27:12;;;;;;;5.12;3.95;;;19.20;99.90;;;;;;4397888;32;19961;-69
2022/08/15 02:29:39;;;;;;;6.28;3.70;;;19.20;99.90;;;;;;4401969;32;19956;-69
2022/08/15 02:32:12;;;;;;;5.20;3.42;;;19.20;99.90;;;;;;4401616;32;19977;-69
2022/08/15 02:34:39;;;;;;;8.15;4.55;;;19.20;99.90;;;;;;4384823;32;19980;-69
2022/08/15 02:37:06;;;;;;;5.53;4.10;;;19.20;99.90;;;;;;4389347;32;19960;-69
2022/08/15 02:39:33;;;;;;;6.78;4.68;;;19.20;99.90;;;;;;4395207;32;19959;-69
2022/08/15 02:42:00;;;;;;;5.32;4.15;;;19.20;99.90;;;;;;4390798;32;19996;-69
2022/08/15 02:44:26;;;;;;;5.85;4.00;;;19.00;99.90;;;;;;4396537;32;19993;-69
2022/08/15 02:46:55;;;;;;;7.05;4.15;;;19.00;99.90;;;;;;4397545;32;19992;-69
2022/08/15 02:49:24;;;;;;;7.57;3.95;;;18.90;99.90;;;;;;4395641;32;20008;-70
2022/08/15 02:51:52;;;;;;;5.62;4.30;;;18.60;99.90;;;;;;4401760;32;19963;-69
2022/08/15 02:54:21;;;;;;;7.93;4.68;;;18.40;99.90;;;;;;4397756;32;19993;-70
2022/08/15 02:56:47;;;;;;;7.03;3.90;;;18.30;99.90;;;;;;4400825;32;20339;-70
2022/08/15 02:59:14;;;;;;;6.82;4.10;;;18.50;99.90;;;;;;4391309;32;19959;-69
2022/08/15 03:01:42;;;;;;;7.40;4.68;;;18.60;99.90;;;;;;4398912;32;19972;-70
2022/08/15 03:04:11;;;;;;;6.90;4.22;;;18.60;99.90;;;;;;4391043;32;20043;-69
2022/08/15 03:06:40;;;;;;;5.45;3.70;;;18.70;99.90;;;;;;4384601;32;20107;-69
2022/08/15 03:09:08;;;;;;;5.93;3.12;;;18.70;99.90;;;;;;4392723;32;19991;-69
2022/08/15 03:11:38;;;;;;;3.50;2.72;;;18.80;99.90;;;;;;4402109;32;19989;-69
2022/08/15 03:14:07;;;;;;;4.47;3.00;;;18.90;99.90;;;;;;4391542;32;19994;-69
2022/08/15 03:16:35;;;;;;;5.45;2.70;;;18.90;99.90;;;;;;4401451;32;19971;-69
2022/08/15 03:19:02;;;;;;;4.07;2.85;;;18.90;99.90;;;;;;4380689;32;19975;-69
2022/08/15 03:21:29;;;;;;;5.07;3.15;;;18.90;99.90;;;;;;4376174;32;19998;-69
2022/08/15 03:23:58;;;;;;;3.78;2.90;;;18.70;99.90;;;;;;4394795;32;19987;-69
2022/08/15 03:26:26;;;;;;;4.65;3.00;;;18.60;99.90;;;;;;4400387;32;19997;-69
2022/08/15 03:28:53;;;;;;;3.70;2.80;;;18.60;99.90;;;;;;4386487;32;20096;-68
2022/08/15 03:31:19;;;;;;;4.10;2.80;;;18.60;99.90;;;;;;4394103;32;20041;-68
2022/08/15 03:33:46;;;;;;;6.28;3.15;;;18.70;99.90;;;;;;4391405;32;20076;-68
2022/08/15 03:36:15;;;;;;;5.47;2.72;;;18.70;99.90;;;;;;4391504;32;20004;-68
2022/08/15 03:38:42;;;;;;;4.72;2.60;;;18.60;99.90;;;;;;4390650;32;19975;-68
2022/08/15 03:41:13;;;;;;;4.53;2.75;;;18.60;99.90;;;;;;4394135;32;20020;-68
2022/08/15 03:43:40;;;;;;;4.25;2.70;;;18.60;99.90;;;;;;4388745;32;20020;-68
2022/08/15 03:46:10;;;;;;;5.72;2.80;;;18.60;99.90;;;;;;4396555;32;19999;-68
2022/08/15 03:48:39;;;;;;;4.30;2.70;;;18.50;99.90;;;;;;4399054;32;19989;-68
2022/08/15 03:51:08;;;;;;;4.37;2.85;;;18.50;99.90;;;;;;4398730;32;19992;-68
2022/08/15 03:53:37;;;;;;;4.87;3.00;;;18.50;99.90;;;;;;4396387;32;19959;-68
2022/08/15 03:56:07;;;;;;;4.80;2.80;;;18.50;99.90;;;;;;4397656;32;19959;-68
2022/08/15 03:58:35;;;;;;;3.33;2.70;;;18.60;99.90;;;;;;4389550;32;20000;-68
2022/08/15 04:01:02;;;;;;;5.00;2.97;;;18.60;99.90;;;;;;4398201;32;19969;-68
2022/08/15 04:03:31;;;;;;;4.00;2.75;;;18.50;99.90;;;;;;4396165;32;20134;-68
2022/08/15 04:05:59;;;;;;;4.60;2.80;;;18.70;99.90;;;;;;4396041;32;19990;-68
2022/08/15 04:08:30;;;;;;;4.32;2.78;;;18.60;99.90;;;;;;4404512;32;19959;-68
2022/08/15 04:10:57;;;;;;;4.10;2.60;;;18.60;99.90;;;;;;4395194;32;19964;-68
2022/08/15 04:13:25;;;;;;;5.15;2.78;;;18.50;99.90;;;;;;4395013;32;19968;-68
2022/08/15 04:15:55;;;;;;;4.60;2.85;;;18.60;99.90;;;;;;4396824;32;19963;-68
2022/08/15 04:18:24;;;;;;;3.92;2.50;;;18.60;99.90;;;;;;4404639;32;19965;-68
2022/08/15 04:20:51;;;;;;;3.75;2.20;;;18.70;99.90;;;;;;4397869;32;20098;-69
2022/08/15 04:23:18;;;;;;;5.05;2.40;;;18.80;99.90;;;;;;4396387;32;19997;-69
2022/08/15 04:25:45;;;;;;;3.70;2.62;;;19.00;99.90;;;;;;4396354;32;19961;-68
2022/08/15 04:28:14;;;;;;;3.25;2.30;;;18.90;99.90;;;;;;4397140;32;20063;-68
2022/08/15 04:30:44;;;;;;;3.97;2.37;;;18.80;99.90;;;;;;4401396;32;20006;-69
2022/08/15 04:33:14;;;;;;;4.00;2.30;;;18.80;99.90;;;;;;4393904;32;20026;-68
2022/08/15 04:35:44;;;;;;;3.90;2.08;;;18.90;99.90;;;;;;4401119;32;19961;-69
2022/08/15 04:38:11;;;;;;;4.25;2.30;;;18.90;99.90;;;;;;4391987;32;19959;-69
2022/08/15 04:40:38;;;;;;;4.62;2.30;;;18.90;99.90;;;;;;4403433;32;19991;-69
2022/08/15 04:43:05;;;;;;;3.30;2.30;;;18.80;99.90;;;;;;4389318;32;20139;-69
2022/08/15 04:45:34;;;;;;;3.80;2.47;;;18.70;99.90;;;;;;4396324;32;19961;-70
2022/08/15 04:48:03;;;;;;;4.60;2.33;;;18.70;99.90;;;;;;4397008;32;19961;-68
2022/08/15 04:50:31;;;;;;;3.60;2.20;;;18.70;99.90;;;;;;4402737;32;19971;-69
2022/08/15 04:53:00;;;;;;;2.85;2.40;;;18.70;99.90;;;;;;4396394;32;20021;-70
2022/08/15 04:55:28;;;;;;;3.42;2.50;;;18.60;99.90;;;;;;4400139;32;20069;-68
2022/08/15 04:57:56;;;;;;;5.25;2.25;;;18.60;99.90;;;;;;4402144;32;20107;-68
2022/08/15 05:00:27;;;;;;;4.03;2.30;;;18.70;99.90;;;;;;4398818;32;19981;-68
2022/08/15 05:03:02;;;;;;;3.85;2.15;;;18.70;99.90;;;;;;4397886;32;19992;-69
2022/08/15 05:05:32;;;;;;;5.55;2.92;;;18.50;99.90;;;;;;4392867;32;19997;-69
2022/08/15 05:07:59;;;;;;;4.30;2.28;;;18.50;99.90;;;;;;4400808;32;20000;-68
2022/08/15 05:10:26;;;;;;;3.28;2.40;;;18.30;99.90;;;;;;4392227;32;20022;-69
2022/08/15 05:12:53;;;;;;;5.00;2.97;;;18.30;99.90;;;;;;4400272;32;20023;-68
2022/08/15 05:15:21;;;;;;;4.47;2.58;;;18.40;99.90;;;;;;4399063;32;19988;-69
2022/08/15 05:17:49;;;;;;;4.95;3.17;;;18.30;99.90;;;;;;4396530;32;20050;-69
2022/08/15 05:20:18;;;;;;;4.82;2.90;;;18.10;99.90;;;;;;4400992;32;19963;-70
2022/08/15 05:22:58;;;;;;;6.18;3.25;;;18.20;99.90;;;;;;4400930;32;19964;-69
2022/08/15 05:25:25;;;;;;;6.30;3.08;;;18.30;99.90;;;;;;4392816;32;19977;-69
2022/08/15 05:27:52;;;;;;;6.78;3.65;;;18.30;99.90;;;;;;4391598;32;19975;-69
2022/08/15 05:30:20;;;;;;;16.98;10.00;;;18.30;99.90;;;;;;4400155;32;19978;-70
2022/08/15 05:32:47;;;;;;;19.42;9.98;;;18.50;99.90;;;;;;4401676;32;19968;-69
2022/08/15 05:35:14;;;;;;;13.25;7.28;;;18.60;99.90;;;;;;4397212;32;19961;-69
2022/08/15 05:37:41;;;;;;;11.38;5.15;;;18.60;99.90;;;;;;4405244;32;20013;-69
2022/08/15 05:40:11;;;;;;;7.55;4.12;;;18.60;99.90;;;;;;4397431;32;20148;-69
2022/08/15 05:42:47;;;;;;;8.98;4.62;;;18.80;99.90;;;;;;4391524;32;20135;-69
2022/08/15 05:45:25;;;;;;;9.30;4.53;;;18.80;99.90;;;;;;4404450;32;20077;-67
2022/08/15 05:48:09;;;;;;;8.18;4.40;;;18.90;99.90;;;;;;4390502;32;19966;-67
2022/08/15 05:50:45;;;;;;;7.03;3.22;;;18.90;99.90;;;;;;4392423;32;20105;-67
2022/08/15 05:53:26;;;;;;;4.53;2.92;;;19.00;99.90;;;;;;4400290;32;19961;-67
2022/08/15 05:55:59;;;;;;;4.45;2.72;;;19.00;99.90;;;;;;4395540;32;19990;-67
2022/08/15 05:58:41;;;;;;;5.35;2.58;;;19.10;99.90;;;;;;4400027;32;19972;-69
2022/08/15 06:01:14;;;;;;;5.03;2.70;;;19.10;99.90;;;;;;4394487;32;20022;-69
2022/08/15 06:03:44;;;;;;;5.70;3.33;;;19.10;99.90;;;;;;4405458;32;19996;-69
2022/08/15 06:06:13;;;;;;;4.40;2.50;;;19.00;99.90;;;;;;4397761;32;20105;-69
2022/08/15 06:08:45;;;;;;;4.00;2.50;;;19.20;99.90;;;;;;4388233;32;19966;-69
2022/08/15 06:11:16;;;;;;;5.10;2.62;;;19.20;99.90;;;;;;4389012;32;19993;-70
2022/08/15 06:13:47;;;;;;;4.75;2.35;;;19.50;99.90;;;;;;4402899;32;20149;-69
2022/08/15 06:16:22;;;;;;;4.10;2.60;;;19.20;99.90;;;;;;4391755;32;19989;-69
2022/08/15 06:18:50;;;;;;;4.70;2.40;;;19.10;99.90;;;;;;4388352;32;19964;-69
2022/08/15 06:21:31;;;;;;;5.30;2.58;;;19.40;99.90;;;;;;4401304;32;19998;-69
2022/08/15 06:24:07;;;;;;;4.55;2.85;;;19.40;99.90;;;;;;4396282;32;19963;-69
2022/08/15 06:26:49;;;;;;;4.25;2.20;;;19.20;99.90;;;;;;4393234;32;19964;-68
2022/08/15 06:29:55;;;;;;;3.55;2.75;;;19.30;99.90;;;;;;4402383;32;19993;-74
2022/08/15 06:32:32;;;;;;;5.20;2.90;;;19.50;99.90;;;;;;4403905;32;20109;-74
2022/08/15 06:35:09;;;;;;;4.05;2.40;;;19.40;99.90;;;;;;4394680;32;19998;-74
2022/08/15 06:37:44;;;;;;;3.22;2.60;;;19.40;99.90;;;;;;4401070;32;20010;-70
2022/08/15 06:40:17;;;;;;;4.22;2.40;;;19.30;99.90;;;;;;4395154;32;19963;-70
2022/08/15 06:42:46;;;;;;;3.55;2.50;;;19.40;99.90;;;;;;4402554;32;20001;-70
2022/08/15 06:45:32;;;;;;;;;;;;;;;;;;;;;
2022/08/15 06:48:04;;;;;;;3.03;2.37;;;19.60;99.90;;;;;;4394502;32;19952;-71
2022/08/15 06:50:35;;;;;;;4.63;2.53;;;19.70;99.90;;;;;;4384760;32;19966;-74
2022/08/15 06:53:07;;;;;;;5.27;4.10;;;19.80;99.90;;;;;;4405174;32;19963;-73
2022/08/15 06:55:44;;;;;;;5.35;3.12;;;20.00;99.90;;;;;;4400965;32;19968;-71
2022/08/15 06:58:19;;;;;;;5.82;2.78;;;20.00;99.90;;;;;;4399562;32;19960;-74
2022/08/15 07:00:52;;;;;;;3.78;2.30;;;20.30;99.90;;;;;;4393742;32;19956;-74
2022/08/15 07:03:33;;;;;;;2.50;2.12;;;20.40;99.90;;;;;;4403036;32;20143;-70
2022/08/15 07:06:02;;;;;;;4.60;2.13;;;20.70;99.90;;;;;;4390044;32;20107;-74
2022/08/15 07:08:37;;;;;;;3.53;2.40;;;21.10;99.90;;;;;;4404327;32;19987;-68
2022/08/15 07:11:14;;;;;;;3.60;2.40;;;21.00;99.90;;;;;;4389694;32;19973;-76
2022/08/15 07:13:59;;;;;;;4.28;2.70;;;21.10;99.90;;;;;;4392114;32;19974;-76
2022/08/15 07:16:34;;;;;;;3.00;2.50;;;20.70;99.90;;;;;;4389544;32;19957;-69
2022/08/15 07:19:02;;;;;;;3.45;2.25;;;21.30;99.90;;;;;;4394760;32;19998;-69
2022/08/15 07:21:29;;;;;;;3.40;2.25;;;21.80;99.90;;;;;;4391993;32;20014;-69
2022/08/15 07:24:09;;;;;;;3.33;2.12;;;21.10;99.90;;;;;;4400499;32;19976;-69
2022/08/15 07:26:45;;;;;;;3.80;2.12;;;21.30;99.90;;;;;;4392007;32;19969;-68
2022/08/15 07:29:24;;;;;;;3.62;2.03;;;21.70;99.90;;;;;;4386042;32;19990;-69
2022/08/15 07:31:59;;;;;;;2.47;1.62;;;22.20;99.90;;;;;;4393464;32;20034;-69
2022/08/15 07:34:26;;;;;;;3.25;2.60;;;22.30;99.90;;;;;;4390271;32;20019;-68
2022/08/15 07:36:57;;;;;;;3.22;2.42;;;22.10;99.90;;;;;;4397198;32;19961;-69
2022/08/15 07:39:27;;;;;;;3.53;2.95;;;22.00;99.90;;;;;;4398163;32;19974;-69
2022/08/15 07:41:54;;;;;;;3.08;2.17;;;22.50;99.90;;;;;;4392656;32;19963;-70
2022/08/15 07:44:26;;;;;;;2.40;1.95;;;23.60;97.90;;;;;;4389969;32;19973;-70
2022/08/15 07:46:57;;;;;;;2.62;2.05;;;23.40;96.70;;;;;;4402963;32;19975;-69
2022/08/15 07:49:28;;;;;;;3.78;1.87;;;24.20;97.30;;;;;;4394097;32;19983;-70
2022/08/15 07:52:02;;;;;;;2.30;1.80;;;24.70;94.70;;;;;;4394488;32;19972;-69
2022/08/15 07:54:31;;;;;;;3.00;2.12;;;24.60;92.00;;;;;;4389578;32;19979;-69
2022/08/15 07:57:00;;;;;;;2.20;1.80;;;24.40;93.10;;;;;;4394408;32;19961;-69
2022/08/15 07:59:33;;;;;;;5.57;4.15;;;25.90;92.20;;;;;;4395260;32;19995;-70
2022/08/15 08:02:10;;;;;;;3.65;2.65;;;24.50;91.70;;;;;;4401131;32;19966;-68
2022/08/15 08:04:37;;;;;;;2.30;1.92;;;23.70;94.00;;;;;;4383206;32;19992;-70
2022/08/15 08:07:11;;;;;;;2.00;1.75;;;25.80;92.60;;;;;;4397679;32;19954;-69
2022/08/15 08:09:43;;;;;;;3.60;1.80;;;24.80;92.40;;;;;;4394807;32;20043;-68
2022/08/15 08:12:21;;;;;;;2.17;1.92;;;26.60;90.20;;;;;;4386175;32;19956;-68
2022/08/15 08:15:02;;;;;;;2.20;1.90;;;26.30;87.80;;;;;;4390814;32;19974;-71
2022/08/15 08:17:34;;;;;;;2.28;1.90;;;27.60;84.20;;;;;;4403885;32;19965;-69
2022/08/15 08:20:11;;;;;;;3.45;1.80;;;25.70;85.00;;;;;;4401019;32;20029;-68
2022/08/15 08:22:47;;;;;;;2.40;1.87;;;26.60;83.60;;;;;;4389617;32;19998;-69
2022/08/15 08:25:24;;;;;;;3.40;2.25;;;25.90;86.20;;;;;;4395401;32;19994;-70
2022/08/15 08:28:06;;;;;;;2.95;2.00;;;27.10;82.60;;;;;;4391685;32;19999;-70
2022/08/15 08:30:40;;;;;;;2.67;2.17;;;27.30;84.60;;;;;;4389064;32;20107;-68
2022/08/15 08:33:15;;;;;;;2.92;1.92;;;26.60;82.30;;;;;;4394696;32;20004;-69
2022/08/15 08:35:46;;;;;;;2.92;1.75;;;25.80;85.10;;;;;;4392576;32;20007;-70
2022/08/15 08:38:28;;;;;;;3.35;1.77;;;26.20;83.50;;;;;;4392484;32;19959;-69
2022/08/15 08:41:34;;;;;;;2.05;1.77;;;27.00;84.90;;;;;;4391655;32;19981;-69
2022/08/15 08:44:11;;;;;;;3.25;1.83;;;28.40;77.20;;;;;;4396345;32;19966;-68
2022/08/15 08:47:06;;;;;;;2.10;1.75;;;28.00;78.30;;;;;;4401806;32;20107;-69
2022/08/15 08:49:38;;;;;;;2.75;1.85;;;29.40;76.70;;;;;;4388423;32;20073;-68
2022/08/15 08:52:08;;;;;;;;;;;29.40;72.70;;;;;;4395355;32;19969;-69
2022/08/15 08:54:45;;;;;;;2.55;1.92;;;29.20;71.80;;;;;;4400722;32;20059;-68
2022/08/15 08:57:16;;;;;;;2.30;1.80;;;30.00;71.00;;;;;;4402889;32;20139;-68
2022/08/15 08:59:54;;;;;;;1.67;1.58;;;31.00;69.90;;;;;;4398571;32;19963;-68
2022/08/15 09:02:28;;;;;;;2.50;1.60;;;31.40;67.80;;;;;;4394369;32;20027;-69
2022/08/15 09:05:01;;;;;;;2.85;1.87;;;29.80;70.20;;;;;;4394120;32;20024;-68
2022/08/15 09:07:31;;;;;;;3.17;1.83;;;30.90;66.50;;;;;;4398818;32;19982;-68
2022/08/15 09:10:01;;;;;;;2.70;1.75;;;28.70;68.10;;;;;;4399216;32;19991;-69
2022/08/15 09:15:23;;;;;;;3.08;1.80;;;31.20;66.40;;;;;;4386666;32;19971;-69
2022/08/15 09:17:54;;;;;;;2.20;2.00;;;31.60;64.20;;;;;;4391419;32;19966;-69
2022/08/15 09:20:25;;;;;;;3.08;1.98;;;31.50;63.10;;;;;;4404637;32;20022;-69
2022/08/15 09:22:52;;;;;;;1.83;1.67;;;31.40;63.70;;;;;;4386024;32;20015;-69
2022/08/15 09:25:19;;;;;;;3.40;2.03;;;32.50;63.10;;;;;;4400942;32;19963;-70
2022/08/15 09:27:51;;;;;;;3.03;1.90;;;33.80;60.30;;;;;;4397630;32;19974;-69
2022/08/15 09:30:18;;;;;;;3.90;1.87;;;34.60;59.90;;;;;;4403721;32;19967;-70
2022/08/15 09:32:59;;;;;;;4.80;2.83;;;31.40;62.90;;;;;;4399314;32;20017;-69
2022/08/15 09:35:36;;;;;;;2.47;2.00;;;32.90;63.10;;;;;;4395966;32;20142;-69
2022/08/15 09:38:22;;;;;;;2.80;2.03;;;33.40;58.10;;;;;;4395699;32;19954;-69
2022/08/15 09:41:12;;;;;;;2.25;1.67;;;31.00;60.20;;;;;;4401868;32;19998;-69
2022/08/15 09:43:57;;;;;;;2.60;2.00;;;33.40;57.30;;;;;;4384195;32;19993;-69
2022/08/15 09:46:49;;;;;;;3.17;2.00;;;33.60;58.70;;;;;;4404428;32;20028;-69
2022/08/15 09:49:29;;;;;;;2.45;1.87;;;35.50;57.10;;;;;;4397497;32;19992;-69
2022/08/15 09:52:09;;;;;;;2.83;2.20;;;34.20;53.20;;;;;;4395027;32;20013;-69
2022/08/15 09:54:45;;;;;;;3.40;1.98;;;31.70;60.00;;;;;;4395910;32;19981;-70
2022/08/15 09:57:31;;;;;;;4.07;2.20;;;34.90;55.80;;;;;;4393861;32;20143;-70
2022/08/15 10:00:17;;;;;;;6.40;5.75;;;31.40;60.30;;;;;;4391668;32;19959;-70
2022/08/15 10:02:46;;;;;;;2.45;2.05;;;34.60;54.80;;;;;;4403955;32;20076;-69
2022/08/15 10:05:23;;;;;;;2.58;1.98;;;35.20;52.60;;;;;;4397353;32;19954;-69
2022/08/15 10:07:52;;;;;;;4.22;2.30;;;32.30;55.70;;;;;;4393636;32;19982;-69
2022/08/15 10:10:46;;;;;;;3.30;1.95;;;32.30;56.50;;;;;;4401086;32;20022;-69
2022/08/15 10:13:28;;;;;;;2.30;1.92;;;32.00;56.90;;;;;;4397133;32;20031;-69
2022/08/15 10:15:56;;;;;;;3.33;2.15;;;32.20;58.00;;;;;;4398234;32;19977;-69
2022/08/15 10:19:02;;;;;;;3.47;2.40;;;35.10;53.70;;;;;;4392434;32;19989;-69
2022/08/15 10:21:37;;;;;;;3.17;2.25;;;38.10;50.80;;;;;;4396300;32;19969;-69
2022/08/15 10:24:14;;;;;;;2.58;2.10;;;38.30;49.50;;;;;;4393145;32;19963;-70
2022/08/15 10:27:01;;;;;;;4.45;2.12;;;37.80;48.70;;;;;;4406145;32;20024;-70
2022/08/15 10:29:30;;;;;;;3.05;2.17;;;40.60;46.60;;;;;;4395390;32;19970;-69
2022/08/15 10:31:59;;;;;;;3.12;2.45;;;38.70;45.10;;;;;;4392087;32;19986;-68
2022/08/15 10:34:37;;;;;;;3.67;2.40;;;33.10;51.50;;;;;;4401096;32;20041;-69
2022/08/15 10:37:18;;;;;;;4.18;2.50;;;28.70;61.90;;;;;;4395104;32;20024;-69
2022/08/15 10:40:20;;;;;;;3.70;2.53;;;28.90;62.60;;;;;;4390845;32;19998;-69
2022/08/15 10:43:01;;;;;;;4.60;2.60;;;30.10;58.70;;;;;;4395579;32;20028;-69
2022/08/15 10:45:35;;;;;;;;;;;31.50;57.10;;;;;;4378163;32;20002;-69
2022/08/15 10:48:17;;;;;;;4.35;2.28;;;32.80;55.00;;;;;;4392405;32;19899;-69
2022/08/15 10:50:55;;;;;;;3.85;2.55;;;33.50;53.90;;;;;;4394225;32;19996;-69
2022/08/15 10:53:35;;;;;;;3.65;2.30;;;36.70;51.70;;;;;;4389825;32;19965;-70
2022/08/15 10:56:13;;;;;;;3.40;2.23;;;38.30;49.70;;;;;;4393314;32;20107;-70
2022/08/15 10:58:41;;;;;;;4.93;2.20;;;38.50;45.70;;;;;;4404222;32;20041;-70
2022/08/15 11:01:17;;;;;;;2.37;2.00;;;37.90;47.40;;;;;;4401493;32;20000;-69
2022/08/15 11:03:50;;;;;;;4.10;2.55;;;36.70;47.70;;;;;;4394270;32;19968;-69
2022/08/15 11:06:21;;;;;;;4.03;3.05;;;31.40;56.80;;;;;;4395918;32;20034;-68
2022/08/15 11:08:53;;;;;;;4.70;2.60;;;32.40;56.30;;;;;;4400461;32;19999;-69
2022/08/15 11:11:23;;;;;;;2.90;2.60;;;29.80;60.70;;;;;;4388266;32;19973;-71
2022/08/15 11:13:53;;;;;;;5.80;2.75;;;30.90;59.50;;;;;;4395045;32;20165;-69
2022/08/15 11:16:31;;;;;;;4.95;2.78;;;30.00;59.90;;;;;;4394829;32;19991;-70
2022/08/15 11:19:01;;;;;;;5.15;2.95;;;30.00;60.50;;;;;;4390475;32;19966;-70
2022/08/15 11:21:37;;;;;;;4.22;2.90;;;31.90;57.80;;;;;;4398192;32;19959;-69
2022/08/15 11:24:07;;;;;;;3.50;2.97;;;33.30;54.70;;;;;;4386137;32;20036;-69
2022/08/15 11:26:37;;;;;;;4.68;3.25;;;35.00;51.80;;;;;;4388919;32;20023;-70
2022/08/15 11:29:10;;;;;;;6.90;3.30;;;33.10;55.80;;;;;;4400274;32;19991;-70
2022/08/15 11:31:48;;;;;;;5.53;3.15;;;34.40;51.90;;;;;;4381163;32;19962;-69
2022/08/15 11:34:27;;;;;;;4.43;2.83;;;34.20;52.50;;;;;;4388996;32;20150;-69
2022/08/15 11:36:58;;;;;;;4.60;2.83;;;34.00;53.50;;;;;;4394967;32;19996;-69
2022/08/15 11:39:30;;;;;;;3.95;3.20;;;37.20;48.90;;;;;;4393793;32;19961;-70
2022/08/15 11:42:02;;;;;;;7.05;3.58;;;36.30;49.90;;;;;;4391693;32;19996;-69
2022/08/15 11:44:40;;;;;;;5.25;3.15;;;35.90;49.10;;;;;;4400862;32;19972;-70
2022/08/15 11:47:13;;;;;;;4.87;3.08;;;34.80;51.00;;;;;;4393832;32;20154;-70
2022/08/15 11:49:47;;;;;;;4.28;3.08;;;30.90;56.30;;;;;;4400365;32;19995;-70
2022/08/15 11:52:20;;;;;;;5.45;3.03;;;33.30;54.00;;;;;;4390487;32;19994;-70
2022/08/15 11:55:09;;;;;;;3.97;3.00;;;35.70;52.20;;;;;;4386441;32;20037;-69
2022/08/15 11:57:42;;;;;;;5.53;3.10;;;37.00;48.70;;;;;;4399283;32;20072;-69
2022/08/15 12:00:15;;;;;;;4.95;3.10;;;33.70;51.80;;;;;;4396317;32;19958;-70
2022/08/15 12:02:42;;;;;;;3.70;2.60;;;35.20;55.30;;;;;;4390076;32;19992;-69
2022/08/15 12:05:14;;;;;;;4.22;2.72;;;36.20;53.70;;;;;;4392855;32;19969;-69
2022/08/15 12:07:48;;;;;;;4.22;3.00;;;34.80;52.90;;;;;;4403809;32;19966;-69
2022/08/15 12:10:28;;;;;;;4.15;2.90;;;34.50;53.10;;;;;;4394568;32;19969;-70
2022/08/15 12:12:55;;;;;;;4.80;3.00;;;33.30;55.20;;;;;;4401018;32;20143;-69
2022/08/15 12:15:24;;;;;;;5.50;3.58;;;33.00;56.60;;;;;;4399963;32;19988;-69
2022/08/15 12:18:06;;;;;;;6.65;3.53;;;33.40;55.50;;;;;;4400949;32;19972;-70
2022/08/15 12:20:41;;;;;;;5.80;3.08;;;32.10;57.00;;;;;;4401134;32;19978;-70
2022/08/15 12:23:27;;;;;;;6.22;3.67;;;32.20;57.60;;;;;;4396434;32;19972;-70
2022/08/15 12:25:57;;;;;;;4.75;3.05;;;31.70;54.70;;;;;;4400324;32;20018;-70
2022/08/15 12:28:25;;;;;;;7.07;3.97;;;32.00;57.40;;;;;;4403516;32;20029;-70
2022/08/15 12:30:54;;;;;;;6.68;3.30;;;31.30;57.50;;;;;;4395769;32;19986;-70
2022/08/15 12:33:21;;;;;;;4.10;2.85;;;31.40;56.00;;;;;;4392401;32;19979;-70
2022/08/15 12:35:48;;;;;;;6.35;2.85;;;30.50;56.80;;;;;;4389840;32;19968;-70
2022/08/15 12:38:15;;;;;;;6.22;2.28;;;29.60;61.00;;;;;;4391404;32;19962;-69
2022/08/15 12:40:41;;;;;;;13.48;2.47;;;28.10;64.40;;;;;;4399758;32;19963;-69
2022/08/15 12:43:10;;;;;;;8.20;2.10;;;27.60;64.20;;;;;;4396622;32;20138;-70
2022/08/15 12:45:38;;;;;;;3.83;2.12;;;27.50;63.40;;;;;;4399930;32;20018;-70
2022/08/15 12:48:21;;;;;;;7.32;1.92;;;27.00;65.10;;;;;;4403305;32;20003;-69
2022/08/15 12:50:47;;;;;;;6.32;1.90;;;27.20;65.70;;;;;;4397289;32;19964;-70
2022/08/15 12:53:14;;;;;;;2.90;2.00;;;27.20;64.70;;;;;;4389579;32;20041;-70
2022/08/15 12:55:42;;;;;;;2.20;1.60;;;27.30;65.80;;;;;;4394162;32;19973;-71
2022/08/15 12:58:11;;;;;;;3.87;1.85;;;27.60;65.20;;;;;;4399329;32;20120;-71
2022/08/15 13:00:38;;;;;;;5.75;2.22;;;27.60;66.70;;;;;;4396579;32;20021;-70
2022/08/15 13:03:15;;;;;;;2.65;1.85;;;28.00;65.60;;;;;;4400383;32;19989;-71
2022/08/15 13:05:42;;;;;;;4.32;2.10;;;27.90;65.70;;;;;;4394931;32;19970;-70
2022/08/15 13:08:09;;;;;;;4.45;2.20;;;28.40;66.90;;;;;;4396750;32;19959;-70
2022/08/15 13:10:36;;;;;;;4.15;2.30;;;27.20;69.20;;;;;;4393317;32;20014;-70
2022/08/15 13:13:03;;;;;;;2.92;2.00;;;27.50;66.30;;;;;;4400269;32;20049;-68
2022/08/15 13:15:31;;;;;;;4.32;2.33;;;27.10;69.00;;;;;;4399323;32;19977;-69
2022/08/15 13:17:59;;;;;;;3.15;2.22;;;27.30;68.20;;;;;;4402104;32;19952;-69